Terminal Aerodrome Forecast
Issued by NWS

Home | Current Version | Previous Version | Text Only | Print | Product List | Glossary On
Versions: 1 2 3 4 5 6 7 8 9 10 11 12
000
FTUS46 KSTO 170520
TAFSAC
TAF
KSAC 170520Z 1706/1806 21007KT P6SM SKC
     FM170900 18004KT P6SM SKC
     FM171800 21007KT P6SM SKC=

USA.gov is the U.S. government's official web portal to all federal, state and local government web resources and services.